createdAt,value
2018-12-12T00:00:19.493Z,1016.11
2018-12-12T00:01:00.293Z,1016.07
2018-12-12T00:01:41.134Z,1016.07
2018-12-12T00:02:21.883Z,1016.03
2018-12-12T00:03:02.644Z,1016.03
2018-12-12T00:03:43.317Z,1016.03
2018-12-12T00:04:24.112Z,1015.97
2018-12-12T00:05:04.937Z,1015.97
2018-12-12T00:05:45.870Z,1015.94
2018-12-12T00:06:26.590Z,1015.98
2018-12-12T00:07:07.359Z,1015.94
2018-12-12T00:07:48.232Z,1015.93
2018-12-12T00:08:29.045Z,1015.95
2018-12-12T00:09:10.066Z,1015.95
2018-12-12T00:09:50.778Z,1015.93
2018-12-12T00:10:31.613Z,1015.92
2018-12-12T00:11:12.371Z,1015.89
2018-12-12T00:11:53.227Z,1015.91
2018-12-12T00:12:34.122Z,1015.92
2018-12-12T00:13:14.863Z,1015.91
2018-12-12T00:13:55.617Z,1015.92
2018-12-12T00:14:36.351Z,1015.9
2018-12-12T00:15:17.087Z,1015.94
2018-12-12T00:15:57.944Z,1015.94
2018-12-12T00:16:38.673Z,1015.93
2018-12-12T00:17:19.428Z,1015.98
2018-12-12T00:18:00.263Z,1015.96
2018-12-12T00:18:41.038Z,1015.95
2018-12-12T00:19:21.848Z,1015.98
2018-12-12T00:20:02.665Z,1016.03
2018-12-12T00:20:43.418Z,1015.99
2018-12-12T00:21:24.228Z,1016
2018-12-12T00:22:04.930Z,1016.02
2018-12-12T00:22:45.641Z,1016.01
2018-12-12T00:23:26.361Z,1016
2018-12-12T00:24:07.135Z,1016.01
2018-12-12T00:24:47.881Z,1016.04
2018-12-12T00:25:28.642Z,1016.01
2018-12-12T00:26:09.368Z,1016.03
2018-12-12T00:26:50.179Z,1016.03
2018-12-12T00:27:30.965Z,1015.99
2018-12-12T00:28:11.802Z,1016.01
2018-12-12T00:28:52.526Z,1016
2018-12-12T00:29:33.263Z,1016.03
2018-12-12T00:30:14.009Z,1016
2018-12-12T00:30:54.833Z,1016.01
2018-12-12T00:31:35.632Z,1016.02
2018-12-12T00:32:16.406Z,1016.04
2018-12-12T00:32:57.180Z,1016.03
2018-12-12T00:33:37.916Z,1016.01
2018-12-12T00:34:18.758Z,1016.03
2018-12-12T00:34:59.501Z,1016.03
2018-12-12T00:35:41.085Z,1016.01
2018-12-12T00:36:20.970Z,1015.99
2018-12-12T00:37:01.766Z,1015.96
2018-12-12T00:37:42.542Z,1015.96
2018-12-12T00:38:23.416Z,1015.96
2018-12-12T00:39:04.140Z,1015.99
2018-12-12T00:39:44.850Z,1015.97
2018-12-12T00:40:25.573Z,1015.96
2018-12-12T00:41:06.375Z,1015.95
2018-12-12T00:41:47.275Z,1015.96
2018-12-12T00:42:27.969Z,1015.93
2018-12-12T00:43:08.772Z,1015.92
2018-12-12T00:43:49.589Z,1015.89
2018-12-12T00:44:30.393Z,1015.86
2018-12-12T00:45:11.162Z,1015.88
2018-12-12T00:45:51.927Z,1015.89
2018-12-12T00:46:32.654Z,1015.85
2018-12-12T00:47:13.401Z,1015.85
2018-12-12T00:47:54.181Z,1015.85
2018-12-12T00:48:34.993Z,1015.83
2018-12-12T00:49:15.818Z,1015.86
2018-12-12T00:49:56.591Z,1015.83
2018-12-12T00:50:37.299Z,1015.81
2018-12-12T00:51:18.080Z,1015.8
2018-12-12T00:51:58.822Z,1015.81
2018-12-12T00:52:39.546Z,1015.83
2018-12-12T00:53:20.279Z,1015.85
2018-12-12T00:54:01.008Z,1015.84
2018-12-12T00:54:41.808Z,1015.84
2018-12-12T00:55:22.524Z,1015.85
2018-12-12T00:56:03.289Z,1015.84
2018-12-12T00:56:44.121Z,1015.88
2018-12-12T00:57:24.886Z,1015.86
2018-12-12T00:58:05.729Z,1015.91
2018-12-12T00:58:46.474Z,1015.9
2018-12-12T00:59:27.210Z,1015.91
2018-12-12T01:00:08.062Z,1015.89
2018-12-12T01:00:48.773Z,1015.9
2018-12-12T01:01:29.524Z,1015.88
2018-12-12T01:02:10.269Z,1015.88
2018-12-12T01:02:51.024Z,1015.84
2018-12-12T01:03:31.812Z,1015.84
2018-12-12T01:04:12.638Z,1015.87
2018-12-12T01:04:53.438Z,1015.83
2018-12-12T01:05:34.193Z,1015.88
2018-12-12T01:06:14.925Z,1015.85
2018-12-12T01:06:55.673Z,1015.89
2018-12-12T01:07:36.478Z,1015.86
2018-12-12T01:08:17.303Z,1015.84
2018-12-12T01:08:57.992Z,1015.84
2018-12-12T01:09:38.778Z,1015.83
2018-12-12T01:10:19.674Z,1015.78
2018-12-12T01:11:00.545Z,1015.76
2018-12-12T01:11:41.246Z,1015.8
2018-12-12T01:12:21.996Z,1015.83
2018-12-12T01:13:02.713Z,1015.81
2018-12-12T01:13:43.486Z,1015.83
2018-12-12T01:14:24.310Z,1015.82
2018-12-12T01:15:05.062Z,1015.84
2018-12-12T01:15:45.863Z,1015.83
2018-12-12T01:16:26.569Z,1015.85
2018-12-12T01:17:07.301Z,1015.83
2018-12-12T01:17:48.106Z,1015.83
2018-12-12T01:18:28.841Z,1015.88
2018-12-12T01:19:09.639Z,1015.9
2018-12-12T01:19:50.364Z,1015.88
2018-12-12T01:20:31.142Z,1015.92
2018-12-12T01:21:11.954Z,1015.92
2018-12-12T01:21:52.817Z,1015.88
2018-12-12T01:22:33.520Z,1015.86
2018-12-12T01:23:14.257Z,1015.86
2018-12-12T01:23:54.997Z,1015.91
2018-12-12T01:24:35.703Z,1015.94
2018-12-12T01:25:16.537Z,1015.96
2018-12-12T01:25:57.241Z,1015.95
2018-12-12T01:26:37.973Z,1015.96
2018-12-12T01:27:18.792Z,1015.9
2018-12-12T01:27:59.575Z,1015.92
2018-12-12T01:28:40.392Z,1015.91
2018-12-12T01:29:21.129Z,1015.93
2018-12-12T01:30:01.941Z,1015.91
2018-12-12T01:30:42.724Z,1015.89
2018-12-12T01:31:23.463Z,1015.86
2018-12-12T01:32:04.186Z,1015.85
2018-12-12T01:32:44.948Z,1015.82
2018-12-12T01:33:25.737Z,1015.81
2018-12-12T01:34:06.628Z,1015.77
2018-12-12T01:34:47.378Z,1015.82
2018-12-12T01:35:28.140Z,1015.86
2018-12-12T01:36:08.948Z,1015.86
2018-12-12T01:36:49.758Z,1015.86
2018-12-12T01:37:30.552Z,1015.87
2018-12-12T01:38:11.247Z,1015.84
2018-12-12T01:38:51.948Z,1015.85
2018-12-12T01:39:32.650Z,1015.83
2018-12-12T01:40:13.456Z,1015.88
2018-12-12T01:40:54.253Z,1015.88
2018-12-12T01:41:35.069Z,1015.87
2018-12-12T01:42:15.833Z,1015.88
2018-12-12T01:42:56.568Z,1015.88
2018-12-12T01:43:37.414Z,1015.87
2018-12-12T01:44:18.191Z,1015.91
2018-12-12T01:44:58.891Z,1015.87
2018-12-12T01:45:39.636Z,1015.87
2018-12-12T01:46:20.392Z,1015.84
2018-12-12T01:47:01.223Z,1015.92
2018-12-12T01:47:41.953Z,1015.93
2018-12-12T01:48:22.665Z,1015.92
2018-12-12T01:49:03.434Z,1015.91
2018-12-12T01:49:44.243Z,1015.94
2018-12-12T01:50:25.058Z,1015.97
2018-12-12T01:51:05.776Z,1015.98
2018-12-12T01:51:46.517Z,1015.99
2018-12-12T01:52:27.310Z,1015.97
2018-12-12T01:53:08.128Z,1015.97
2018-12-12T01:53:48.870Z,1015.9
2018-12-12T01:54:29.608Z,1015.95
2018-12-12T01:55:10.371Z,1015.93
2018-12-12T01:55:51.228Z,1015.96
2018-12-12T01:56:31.984Z,1015.97
2018-12-12T01:57:12.779Z,1015.95
2018-12-12T01:57:53.482Z,1015.96
2018-12-12T01:58:34.198Z,1016.01
2018-12-12T01:59:14.967Z,1015.99
2018-12-12T01:59:55.755Z,1015.98
2018-12-12T02:00:36.498Z,1015.99
2018-12-12T02:01:17.278Z,1016.02
2018-12-12T02:01:58.041Z,1016.03
2018-12-12T02:02:38.842Z,1016.01
2018-12-12T02:03:19.640Z,1015.98
2018-12-12T02:04:00.372Z,1015.97
2018-12-12T02:04:41.057Z,1015.92
2018-12-12T02:05:21.835Z,1015.9
2018-12-12T02:06:02.596Z,1015.87
2018-12-12T02:06:43.355Z,1015.88
2018-12-12T02:07:24.080Z,1015.89
2018-12-12T02:08:04.792Z,1015.87
2018-12-12T02:08:46.224Z,1015.92
2018-12-12T02:09:26.331Z,1015.92
2018-12-12T02:10:07.057Z,1015.92
2018-12-12T02:10:47.811Z,1015.93
2018-12-12T02:11:28.651Z,1015.92
2018-12-12T02:12:09.451Z,1015.89
2018-12-12T02:12:50.114Z,1015.85
2018-12-12T02:13:30.898Z,1015.83
2018-12-12T02:14:11.643Z,1015.87
2018-12-12T02:14:52.392Z,1015.84
2018-12-12T02:15:33.220Z,1015.85
2018-12-12T02:16:13.991Z,1015.88
2018-12-12T02:16:54.758Z,1015.86
2018-12-12T02:17:35.465Z,1015.85
2018-12-12T02:18:16.229Z,1015.9
2018-12-12T02:18:57.025Z,1015.83
2018-12-12T02:19:37.752Z,1015.83
2018-12-12T02:20:18.425Z,1015.82
2018-12-12T02:20:59.141Z,1015.79
2018-12-12T02:21:40.058Z,1015.77
2018-12-12T02:22:20.869Z,1015.78
2018-12-12T02:23:01.693Z,1015.77
2018-12-12T02:23:42.421Z,1015.81
2018-12-12T02:24:23.181Z,1015.76
2018-12-12T02:25:03.896Z,1015.81
2018-12-12T02:25:44.694Z,1015.82
2018-12-12T02:26:25.553Z,1015.82
2018-12-12T02:27:06.274Z,1015.85
2018-12-12T02:27:47.027Z,1015.85
2018-12-12T02:28:27.834Z,1015.84
2018-12-12T02:29:08.615Z,1015.85
2018-12-12T02:29:49.432Z,1015.89
2018-12-12T02:30:30.225Z,1015.85
2018-12-12T02:31:10.959Z,1015.85
2018-12-12T02:31:51.678Z,1015.87
2018-12-12T02:32:32.436Z,1015.92
2018-12-12T02:33:13.217Z,1015.93
2018-12-12T02:33:54.047Z,1015.94
2018-12-12T02:34:34.726Z,1015.99
2018-12-12T02:35:15.499Z,1015.96
2018-12-12T02:35:56.301Z,1016
2018-12-12T02:36:37.064Z,1016.01
2018-12-12T02:37:17.785Z,1015.98
2018-12-12T02:37:58.526Z,1016.01
2018-12-12T02:38:39.264Z,1015.99
2018-12-12T02:39:20.118Z,1015.97
2018-12-12T02:40:00.800Z,1015.96
2018-12-12T02:40:41.552Z,1015.91
2018-12-12T02:41:22.322Z,1015.9
2018-12-12T02:42:03.113Z,1015.88
2018-12-12T02:42:43.937Z,1015.88
2018-12-12T02:43:24.671Z,1015.9
2018-12-12T02:44:05.467Z,1015.91
2018-12-12T02:44:46.274Z,1015.89
2018-12-12T02:45:26.991Z,1015.89
2018-12-12T02:46:07.707Z,1015.89
2018-12-12T02:46:48.445Z,1015.91
2018-12-12T02:47:29.217Z,1015.88
2018-12-12T02:48:10.045Z,1015.93
2018-12-12T02:48:50.856Z,1015.95
2018-12-12T02:49:32.364Z,1015.94
2018-12-12T02:50:12.343Z,1015.91
2018-12-12T02:50:53.079Z,1015.93
2018-12-12T02:51:33.802Z,1015.93
2018-12-12T02:52:14.639Z,1015.92
2018-12-12T02:52:55.336Z,1015.94
2018-12-12T02:53:36.083Z,1015.94
2018-12-12T02:54:16.886Z,1015.95
2018-12-12T02:54:57.709Z,1015.92
2018-12-12T02:55:38.564Z,1015.93
2018-12-12T02:56:19.230Z,1015.93
2018-12-12T02:56:59.928Z,1015.95
2018-12-12T02:57:40.684Z,1015.96
2018-12-12T02:58:21.559Z,1015.97
2018-12-12T02:59:02.355Z,1015.97
2018-12-12T02:59:43.146Z,1016
2018-12-12T03:00:23.894Z,1015.98
2018-12-12T03:01:04.626Z,1016.01
2018-12-12T03:01:45.430Z,1015.98
2018-12-12T03:02:26.171Z,1016.02
2018-12-12T03:03:06.866Z,1016
2018-12-12T03:03:47.639Z,1016.01
2018-12-12T03:04:28.424Z,1016
2018-12-12T03:05:09.178Z,1016.02
2018-12-12T03:05:50.014Z,1015.98
2018-12-12T03:06:30.753Z,1015.99
2018-12-12T03:07:11.464Z,1016
2018-12-12T03:07:52.138Z,1016.01
2018-12-12T03:08:32.830Z,1015.99
2018-12-12T03:09:13.604Z,1016.04
2018-12-12T03:09:54.375Z,1016.03
2018-12-12T03:10:35.055Z,1016.02
2018-12-12T03:11:15.826Z,1016.02
2018-12-12T03:11:56.604Z,1016.02
2018-12-12T03:12:37.426Z,1015.98
2018-12-12T03:13:18.183Z,1015.97
2018-12-12T03:13:58.904Z,1015.91
2018-12-12T03:14:39.703Z,1015.92
2018-12-12T03:15:20.429Z,1015.86
2018-12-12T03:16:01.175Z,1015.86
2018-12-12T03:16:41.892Z,1015.87
2018-12-12T03:17:22.634Z,1015.87
2018-12-12T03:18:03.440Z,1015.9
2018-12-12T03:18:44.267Z,1015.94
2018-12-12T03:19:24.924Z,1016.02
2018-12-12T03:20:05.741Z,1016.04
2018-12-12T03:20:46.534Z,1016.1
2018-12-12T03:21:27.285Z,1016.09
2018-12-12T03:22:08.004Z,1016.1
2018-12-12T03:22:48.702Z,1016.12
2018-12-12T03:23:29.392Z,1016.05
2018-12-12T03:24:10.230Z,1016.06
2018-12-12T03:24:50.970Z,1016.01
2018-12-12T03:25:31.795Z,1016.02
2018-12-12T03:26:12.557Z,1016.06
2018-12-12T03:26:53.269Z,1016.04
2018-12-12T03:27:34.055Z,1016.04
2018-12-12T03:28:14.833Z,1016.08
2018-12-12T03:28:55.540Z,1016.06
2018-12-12T03:29:36.270Z,1016.02
2018-12-12T03:30:16.967Z,1016.01
2018-12-12T03:30:57.788Z,1016.03
2018-12-12T03:31:38.580Z,1016.01
2018-12-12T03:32:19.342Z,1016.02
2018-12-12T03:33:00.115Z,1015.97
2018-12-12T03:33:40.845Z,1016.03
2018-12-12T03:34:21.547Z,1016.04
2018-12-12T03:35:02.346Z,1016.05
2018-12-12T03:35:43.079Z,1016.08
2018-12-12T03:36:23.853Z,1016.07
2018-12-12T03:37:04.638Z,1016.07
2018-12-12T03:37:45.424Z,1016.04
2018-12-12T03:38:26.278Z,1016.04
2018-12-12T03:39:07.108Z,1016.06
2018-12-12T03:39:47.802Z,1016.05
2018-12-12T03:40:28.539Z,1016.04
2018-12-12T03:41:09.273Z,1016.05
2018-12-12T03:41:50.071Z,1016.07
2018-12-12T03:42:30.867Z,1016.07
2018-12-12T03:43:11.668Z,1016.06
2018-12-12T03:43:52.428Z,1016.04
2018-12-12T03:44:33.140Z,1016.04
2018-12-12T03:45:13.996Z,1016.04
2018-12-12T03:45:54.761Z,1016.04
2018-12-12T03:46:36.017Z,1016.07
2018-12-12T03:47:16.728Z,1016.05
2018-12-12T03:47:57.507Z,1016.07
2018-12-12T03:48:38.297Z,1016.09
2018-12-12T03:49:19.069Z,1016.09
2018-12-12T03:49:59.790Z,1016.13
2018-12-12T03:50:40.575Z,1016.14
2018-12-12T03:51:21.438Z,1016.19
2018-12-12T03:52:02.196Z,1016.13
2018-12-12T03:52:42.920Z,1016.14
2018-12-12T03:53:23.712Z,1016.09
2018-12-12T03:54:04.493Z,1016.12
2018-12-12T03:54:45.215Z,1016.14
2018-12-12T03:55:25.948Z,1016.16
2018-12-12T03:56:06.662Z,1016.15
2018-12-12T03:56:47.434Z,1016.15
2018-12-12T03:57:28.208Z,1016.14
2018-12-12T03:58:09.012Z,1016.16
2018-12-12T03:58:49.822Z,1016.14
2018-12-12T03:59:30.526Z,1016.13
2018-12-12T04:00:11.283Z,1016.11
2018-12-12T04:00:51.967Z,1016.11
2018-12-12T04:01:32.802Z,1016.11
2018-12-12T04:02:13.518Z,1016.12
2018-12-12T04:02:54.272Z,1016.12
2018-12-12T04:03:35.076Z,1016.13
2018-12-12T04:04:15.881Z,1016.09
2018-12-12T04:04:56.664Z,1016.07
2018-12-12T04:05:37.422Z,1016.1
2018-12-12T04:06:18.164Z,1016.14
2018-12-12T04:06:59.002Z,1016.14
2018-12-12T04:07:39.812Z,1016.16
2018-12-12T04:08:20.502Z,1016.24
2018-12-12T04:09:01.261Z,1016.18
2018-12-12T04:09:41.965Z,1016.16
2018-12-12T04:10:22.845Z,1016.16
2018-12-12T04:11:03.592Z,1016.11
2018-12-12T04:11:44.307Z,1016.07
2018-12-12T04:12:25.110Z,1016.06
2018-12-12T04:13:05.949Z,1016.05
2018-12-12T04:13:46.797Z,1016.07
2018-12-12T04:14:27.557Z,1016.05
2018-12-12T04:15:08.274Z,1016.04
2018-12-12T04:15:48.987Z,1016.06
2018-12-12T04:16:29.771Z,1016.04
2018-12-12T04:17:12.100Z,1016.02
2018-12-12T04:17:51.333Z,1016.08
2018-12-12T04:18:32.043Z,1016.07
2018-12-12T04:19:12.730Z,1016.11
2018-12-12T04:19:53.649Z,1016.09
2018-12-12T04:20:34.345Z,1016.11
2018-12-12T04:21:15.114Z,1016.11
2018-12-12T04:21:55.846Z,1016.12
2018-12-12T04:22:36.584Z,1016.14
2018-12-12T04:23:17.395Z,1016.14
2018-12-12T04:23:58.134Z,1016.13
2018-12-12T04:24:38.906Z,1016.12
2018-12-12T04:25:19.740Z,1016.14
2018-12-12T04:26:00.530Z,1016.11
2018-12-12T04:26:41.327Z,1016.17
2018-12-12T04:27:22.051Z,1016.14
2018-12-12T04:28:02.767Z,1016.12
2018-12-12T04:28:43.600Z,1016.15
2018-12-12T04:29:24.447Z,1016.16
2018-12-12T04:30:05.359Z,1016.17
2018-12-12T04:30:46.136Z,1016.19
2018-12-12T04:31:26.917Z,1016.18
2018-12-12T04:32:07.967Z,1016.18
2018-12-12T04:32:48.837Z,1016.19
2018-12-12T04:33:29.632Z,1016.16
2018-12-12T04:34:10.346Z,1016.18
2018-12-12T04:34:51.143Z,1016.15
2018-12-12T04:35:32.070Z,1016.18
2018-12-12T04:36:12.893Z,1016.15
2018-12-12T04:36:53.678Z,1016.22
2018-12-12T04:37:34.424Z,1016.2
2018-12-12T04:38:15.267Z,1016.24
2018-12-12T04:38:56.068Z,1016.23
2018-12-12T04:39:36.876Z,1016.24
2018-12-12T04:40:17.660Z,1016.22
2018-12-12T04:40:58.338Z,1016.21
2018-12-12T04:41:39.049Z,1016.23
2018-12-12T04:42:19.796Z,1016.23
2018-12-12T04:43:00.596Z,1016.21
2018-12-12T04:43:41.372Z,1016.22
2018-12-12T04:44:22.180Z,1016.17
2018-12-12T04:45:02.923Z,1016.14
2018-12-12T04:45:43.697Z,1016.13
2018-12-12T04:46:24.508Z,1016.08
2018-12-12T04:47:05.245Z,1016.12
2018-12-12T04:47:45.957Z,1016.07
2018-12-12T04:48:26.661Z,1016.07
2018-12-12T04:49:07.454Z,1016.05
2018-12-12T04:49:48.239Z,1016.07
2018-12-12T04:50:29.039Z,1016.04
2018-12-12T04:51:09.787Z,1016.03
2018-12-12T04:51:50.526Z,1016.04
2018-12-12T04:52:31.260Z,1015.96
2018-12-12T04:53:11.997Z,1015.97
2018-12-12T04:53:52.811Z,1015.97
2018-12-12T04:54:33.583Z,1015.95
2018-12-12T04:55:14.340Z,1015.94
2018-12-12T04:55:55.147Z,1015.95
2018-12-12T04:56:35.926Z,1015.98
2018-12-12T04:57:16.722Z,1015.99
2018-12-12T04:57:57.446Z,1015.97
2018-12-12T04:58:38.153Z,1016.02
2018-12-12T04:59:18.957Z,1016.05
2018-12-12T04:59:59.676Z,1016.03
2018-12-12T05:00:40.415Z,1016.05
2018-12-12T05:01:21.148Z,1016.03
2018-12-12T05:02:01.914Z,1016.07
2018-12-12T05:02:42.719Z,1016.07
2018-12-12T05:03:23.447Z,1016.08
2018-12-12T05:04:04.193Z,1016.11
2018-12-12T05:04:44.987Z,1016.08
2018-12-12T05:05:25.785Z,1016.09
2018-12-12T05:06:06.585Z,1016.11
2018-12-12T05:06:47.327Z,1016.13
2018-12-12T05:07:28.055Z,1016.11
2018-12-12T05:08:08.739Z,1016.14
2018-12-12T05:08:49.684Z,1016.12
2018-12-12T05:09:30.439Z,1016.15
2018-12-12T05:10:11.425Z,1016.13
2018-12-12T05:10:52.137Z,1016.16
2018-12-12T05:11:32.837Z,1016.14
2018-12-12T05:12:13.676Z,1016.17
2018-12-12T05:12:54.455Z,1016.18
2018-12-12T05:13:35.162Z,1016.18
2018-12-12T05:14:15.894Z,1016.19
2018-12-12T05:14:56.630Z,1016.26
2018-12-12T05:15:37.401Z,1016.24
2018-12-12T05:16:18.289Z,1016.23
2018-12-12T05:16:59.112Z,1016.21
2018-12-12T05:17:39.837Z,1016.22
2018-12-12T05:18:20.513Z,1016.21
2018-12-12T05:19:01.241Z,1016.25
2018-12-12T05:19:42.071Z,1016.22
2018-12-12T05:20:22.876Z,1016.24
2018-12-12T05:21:03.631Z,1016.25
2018-12-12T05:21:44.368Z,1016.22
2018-12-12T05:22:25.206Z,1016.19
2018-12-12T05:23:05.976Z,1016.2
2018-12-12T05:23:46.765Z,1016.2
2018-12-12T05:24:27.452Z,1016.2
2018-12-12T05:25:08.146Z,1016.19
2018-12-12T05:25:48.919Z,1016.2
2018-12-12T05:26:29.693Z,1016.21
2018-12-12T05:27:10.493Z,1016.22
2018-12-12T05:27:51.321Z,1016.24
2018-12-12T05:28:32.012Z,1016.28
2018-12-12T05:29:12.778Z,1016.31
2018-12-12T05:29:53.596Z,1016.33
2018-12-12T05:30:34.280Z,1016.35
2018-12-12T05:31:15.043Z,1016.38
2018-12-12T05:31:55.755Z,1016.37
2018-12-12T05:32:36.534Z,1016.38
2018-12-12T05:33:17.386Z,1016.37
2018-12-12T05:33:58.089Z,1016.41
2018-12-12T05:34:38.831Z,1016.4
2018-12-12T05:35:19.592Z,1016.44
2018-12-12T05:36:00.383Z,1016.48
2018-12-12T05:36:41.207Z,1016.46
2018-12-12T05:37:21.940Z,1016.51
2018-12-12T05:38:02.731Z,1016.51
2018-12-12T05:38:43.566Z,1016.54
2018-12-12T05:39:24.239Z,1016.57
2018-12-12T05:40:04.932Z,1016.56
2018-12-12T05:40:45.667Z,1016.57
2018-12-12T05:41:26.426Z,1016.58
2018-12-12T05:42:07.264Z,1016.57
2018-12-12T05:42:48.006Z,1016.57
2018-12-12T05:43:28.775Z,1016.55
2018-12-12T05:44:09.498Z,1016.58
2018-12-12T05:44:50.283Z,1016.58
2018-12-12T05:45:31.037Z,1016.56
2018-12-12T05:46:11.825Z,1016.61
2018-12-12T05:46:52.567Z,1016.59
2018-12-12T05:47:33.354Z,1016.61
2018-12-12T05:48:14.148Z,1016.62
2018-12-12T05:48:54.957Z,1016.61
2018-12-12T05:49:35.825Z,1016.59
2018-12-12T05:50:16.539Z,1016.57
2018-12-12T05:50:57.332Z,1016.61
2018-12-12T05:51:38.033Z,1016.58
2018-12-12T05:52:18.805Z,1016.56
2018-12-12T05:52:59.605Z,1016.54
2018-12-12T05:53:40.430Z,1016.52
2018-12-12T05:54:21.272Z,1016.55
2018-12-12T05:55:01.969Z,1016.53
2018-12-12T05:55:42.730Z,1016.54
2018-12-12T05:56:23.544Z,1016.51
2018-12-12T05:57:04.299Z,1016.52
2018-12-12T05:57:45.055Z,1016.51
2018-12-12T05:58:25.823Z,1016.49
2018-12-12T05:59:06.609Z,1016.48
2018-12-12T05:59:47.384Z,1016.47
2018-12-12T06:00:28.191Z,1016.48
2018-12-12T06:01:08.932Z,1016.5
2018-12-12T06:01:49.700Z,1016.46
2018-12-12T06:02:30.453Z,1016.53
2018-12-12T06:03:11.213Z,1016.49
2018-12-12T06:03:52.035Z,1016.55
2018-12-12T06:04:32.769Z,1016.53
2018-12-12T06:05:13.505Z,1016.58
2018-12-12T06:05:54.351Z,1016.56
2018-12-12T06:06:35.086Z,1016.63
2018-12-12T06:07:15.917Z,1016.62
2018-12-12T06:07:56.600Z,1016.59
2018-12-12T06:08:37.379Z,1016.63
2018-12-12T06:09:18.178Z,1016.6
2018-12-12T06:09:58.918Z,1016.66
2018-12-12T06:10:39.623Z,1016.62
2018-12-12T06:11:20.358Z,1016.62
2018-12-12T06:12:01.190Z,1016.63
2018-12-12T06:12:42.036Z,1016.67
2018-12-12T06:13:22.726Z,1016.71
2018-12-12T06:14:03.519Z,1016.74
2018-12-12T06:14:44.308Z,1016.74
2018-12-12T06:15:25.107Z,1016.77
2018-12-12T06:16:05.953Z,1016.79
2018-12-12T06:16:46.676Z,1016.76
2018-12-12T06:17:27.407Z,1016.76
2018-12-12T06:18:08.168Z,1016.76
2018-12-12T06:18:48.995Z,1016.75
2018-12-12T06:19:29.744Z,1016.83
2018-12-12T06:20:10.503Z,1016.81
2018-12-12T06:20:51.226Z,1016.79
2018-12-12T06:21:31.962Z,1016.79
2018-12-12T06:22:12.769Z,1016.75
2018-12-12T06:22:53.443Z,1016.72
2018-12-12T06:23:34.188Z,1016.76
2018-12-12T06:24:14.909Z,1016.73
2018-12-12T06:24:55.653Z,1016.76
2018-12-12T06:25:36.444Z,1016.72
2018-12-12T06:26:17.223Z,1016.73
2018-12-12T06:26:57.984Z,1016.72
2018-12-12T06:27:38.769Z,1016.68
2018-12-12T06:28:19.560Z,1016.67
2018-12-12T06:29:00.327Z,1016.62
2018-12-12T06:29:41.015Z,1016.63
2018-12-12T06:30:21.778Z,1016.61
2018-12-12T06:31:02.668Z,1016.66
2018-12-12T06:31:43.408Z,1016.63
2018-12-12T06:32:24.179Z,1016.63
2018-12-12T06:33:04.880Z,1016.6
2018-12-12T06:33:45.736Z,1016.65
2018-12-12T06:34:26.495Z,1016.65
2018-12-12T06:35:07.284Z,1016.65
2018-12-12T06:35:48.018Z,1016.65
2018-12-12T06:36:28.727Z,1016.68
2018-12-12T06:37:09.430Z,1016.69
2018-12-12T06:37:50.175Z,1016.7
2018-12-12T06:38:30.953Z,1016.75
2018-12-12T06:39:11.738Z,1016.79
2018-12-12T06:39:52.486Z,1016.76
2018-12-12T06:40:33.299Z,1016.81
2018-12-12T06:41:14.052Z,1016.82
2018-12-12T06:41:54.869Z,1016.84
2018-12-12T06:42:35.612Z,1016.82
2018-12-12T06:43:16.364Z,1016.84
2018-12-12T06:43:57.164Z,1016.81
2018-12-12T06:44:37.877Z,1016.84
2018-12-12T06:45:18.601Z,1016.85
2018-12-12T06:45:59.306Z,1016.81
2018-12-12T06:46:40.084Z,1016.82
2018-12-12T06:47:20.894Z,1016.84
2018-12-12T06:48:01.605Z,1016.85
2018-12-12T06:48:42.372Z,1016.85
2018-12-12T06:49:23.139Z,1016.84
2018-12-12T06:50:03.984Z,1016.86
2018-12-12T06:50:44.761Z,1016.83
2018-12-12T06:51:25.444Z,1016.84
2018-12-12T06:52:06.211Z,1016.81
2018-12-12T06:52:46.946Z,1016.81
2018-12-12T06:53:27.760Z,1016.82
2018-12-12T06:54:08.509Z,1016.77
2018-12-12T06:54:49.328Z,1016.78
2018-12-12T06:55:30.038Z,1016.79
2018-12-12T06:56:10.794Z,1016.78
2018-12-12T06:56:51.591Z,1016.79
2018-12-12T06:57:32.364Z,1016.81
2018-12-12T06:58:13.091Z,1016.8
2018-12-12T06:58:53.818Z,1016.78
2018-12-12T06:59:34.548Z,1016.8
2018-12-12T07:00:15.355Z,1016.83
2018-12-12T07:00:56.147Z,1016.82
2018-12-12T07:01:36.951Z,1016.81
2018-12-12T07:02:17.647Z,1016.81
2018-12-12T07:04:33.159Z,1016.82
2018-12-12T07:05:14.012Z,1016.81
2018-12-12T07:05:54.785Z,1016.81
2018-12-12T07:06:35.545Z,1016.9
2018-12-12T07:07:16.266Z,1016.88
2018-12-12T07:07:57.020Z,1016.86
2018-12-12T07:08:37.754Z,1016.91
2018-12-12T07:09:18.517Z,1016.93
2018-12-12T07:09:59.284Z,1016.9
2018-12-12T07:10:40.096Z,1016.9
2018-12-12T07:11:20.941Z,1016.92
2018-12-12T07:12:01.804Z,1016.89
2018-12-12T07:12:42.510Z,1016.92
2018-12-12T07:13:23.226Z,1016.93
2018-12-12T07:14:03.918Z,1016.89
2018-12-12T07:14:44.686Z,1016.96
2018-12-12T07:15:25.525Z,1016.94
2018-12-12T07:16:06.373Z,1016.95
2018-12-12T07:16:47.148Z,1016.99
2018-12-12T07:17:27.852Z,1016.99
2018-12-12T07:18:08.590Z,1017.01
2018-12-12T07:18:49.381Z,1017.03
2018-12-12T07:19:30.128Z,1017.05
2018-12-12T07:20:10.834Z,1017.05
2018-12-12T07:20:51.635Z,1017.08
2018-12-12T07:21:32.369Z,1017.1
2018-12-12T07:22:13.230Z,1017.12
2018-12-12T07:22:54.040Z,1017.11
2018-12-12T07:23:34.815Z,1017.14
2018-12-12T07:24:15.540Z,1017.12
2018-12-12T07:24:56.252Z,1017.12
2018-12-12T07:25:37.081Z,1017.15
2018-12-12T07:26:17.935Z,1017.1
2018-12-12T07:26:58.646Z,1017.05
2018-12-12T07:27:39.416Z,1017.09
2018-12-12T07:28:20.262Z,1017.01
2018-12-12T07:29:01.023Z,1016.99
2018-12-12T07:29:41.824Z,1016.98
2018-12-12T07:30:22.560Z,1016.96
2018-12-12T07:31:03.280Z,1016.97
2018-12-12T07:31:44.020Z,1016.97
2018-12-12T07:32:26.085Z,1016.93
2018-12-12T07:33:05.575Z,1016.96
2018-12-12T07:33:46.350Z,1016.97
2018-12-12T07:34:27.056Z,1016.96
2018-12-12T07:35:07.809Z,1016.95
2018-12-12T07:35:48.563Z,1016.95
2018-12-12T07:36:29.429Z,1017.03
2018-12-12T07:37:10.115Z,1017.04
2018-12-12T07:37:50.845Z,1017.08
2018-12-12T07:38:31.604Z,1017.08
2018-12-12T07:39:17.814Z,1017.12
2018-12-12T07:39:53.170Z,1017.13
2018-12-12T07:40:33.921Z,1017.19
2018-12-12T07:41:14.746Z,1017.2
2018-12-12T07:41:55.538Z,1017.23
2018-12-12T07:42:36.349Z,1017.24
2018-12-12T07:43:17.099Z,1017.26
2018-12-12T07:43:57.843Z,1017.26
2018-12-12T07:44:38.662Z,1017.28
2018-12-12T07:45:19.359Z,1017.25
2018-12-12T07:46:00.057Z,1017.24
2018-12-12T07:46:40.798Z,1017.2
2018-12-12T07:47:21.563Z,1017.23
2018-12-12T07:48:02.432Z,1017.24
2018-12-12T07:48:43.231Z,1017.23
2018-12-12T07:49:24.117Z,1017.22
2018-12-12T07:50:04.774Z,1017.23
2018-12-12T07:50:45.476Z,1017.22
2018-12-12T07:51:26.210Z,1017.23
2018-12-12T07:52:06.982Z,1017.21
2018-12-12T07:52:47.788Z,1017.19
2018-12-12T07:53:28.483Z,1017.23
2018-12-12T07:54:09.228Z,1017.18
2018-12-12T07:54:50.067Z,1017.17
2018-12-12T07:55:30.845Z,1017.21
2018-12-12T07:56:11.611Z,1017.21
2018-12-12T07:56:52.345Z,1017.23
2018-12-12T07:57:34.328Z,1017.25
2018-12-12T07:58:13.819Z,1017.25
2018-12-12T07:58:54.571Z,1017.26
2018-12-12T07:59:35.371Z,1017.3
2018-12-12T08:00:16.087Z,1017.3
2018-12-12T08:00:56.786Z,1017.32
2018-12-12T08:01:37.553Z,1017.34
2018-12-12T08:02:18.306Z,1017.34
2018-12-12T08:03:04.444Z,1017.31
2018-12-12T08:03:39.745Z,1017.32
2018-12-12T08:04:20.474Z,1017.32
2018-12-12T08:05:01.293Z,1017.33
2018-12-12T08:05:42.039Z,1017.34
2018-12-12T08:06:22.837Z,1017.32
2018-12-12T08:07:03.610Z,1017.31
2018-12-12T08:07:44.300Z,1017.3
2018-12-12T08:08:25.000Z,1017.31
2018-12-12T08:09:05.740Z,1017.28
2018-12-12T08:09:46.497Z,1017.32
2018-12-12T08:10:27.203Z,1017.31
2018-12-12T08:11:07.903Z,1017.32
2018-12-12T08:11:48.691Z,1017.3
2018-12-12T08:12:29.517Z,1017.29
2018-12-12T08:13:10.266Z,1017.28
2018-12-12T08:13:51.035Z,1017.28
2018-12-12T08:14:31.865Z,1017.28
2018-12-12T08:15:12.701Z,1017.29
2018-12-12T08:15:53.425Z,1017.26